Airfield :
LOGIN :

Register | Disclaimer

   EN    FR    IT 

 










Legend :    VFR   Marginal VFR   IFR   Intensive IFR   Very Intensive IFR
Visi :
Ceiling :
>= 8 km
>= 3000ft
5 to 8 km
1000 to 3000 ft
1500m to 5 km
500 to 1000 ft
800 to 1500m
200 to 500 ft
< 800m
< 200 ft
Symbols :   Thunderstorms  Fog  Heavy snow  Heavy precipitations  Wind > 20 kt
SIGMETs :     Misc.  Thunderstorms  Icing  Turbulence  Mountain Waves  Volcanic Ashes







- Airport Elevation : 302 ft
- IATA code : CGN


EDDK - Cologne Bonn

CURRENT METAR :
  • 250020Z 17007KT CAVOK 12/07 Q1010 NOSIG

EXPIRED METARs :
  • 242350Z 17007KT CAVOK 13/08 Q1010 NOSIG
  • 242320Z 17009KT 9999 FEW047 SCT100 13/09 Q1011 NOSIG
  • 242250Z 16007KT 9999 SCT047 BKN100 12/10 Q1011 NOSIG
  • 242220Z 14005KT 9999 SCT047 BKN100 13/10 Q1011 NOSIG
  • 242150Z 14004KT 9999 FEW047 BKN100 13/10 Q1012 NOSIG

TAF TAF EDDK
Valid from the 25 at 00:00 until the 26 at 06:00 UTC


242300Z 2500/2606 18006KT 9999 SCT030
BECMG 2500/2503 24008KT
TEMPO 2505/2509 SHRA BKN020TCU
BECMG 2506/2508 27013KT
TEMPO 2509/2516 29015G25KT
BECMG 2516/2519 24008KT
No reported NOTAMs for that airfield.



MET'MAP, your aeronautical weather chart ! - Copyright ORBIFLY December 2007 - Disclaimer

ORBIFLY MET'MAP TEAM :

Programming & Development : Alexandra Zaïnal
Concept & Development : Baudouin d'Aumeries
Co-Development & Prog : Marc-Olivier Méhu
Technical & hardware support : Manuel Goepfert

Contact : metmap@orbifly.com




SOURCES & CREDITS :

   NOAA